createdAt,value
2022-12-18T00:00:07.293Z,22.20
2022-12-18T00:03:02.360Z,19.50
2022-12-18T00:05:30.793Z,20.70
2022-12-18T00:07:59.174Z,19.60
2022-12-18T00:10:28.706Z,19.30
2022-12-18T00:12:57.477Z,19.60
2022-12-18T00:15:26.102Z,19.70
2022-12-18T00:17:54.367Z,20.70
2022-12-18T00:20:26.778Z,20.40
2022-12-18T00:22:56.193Z,21.00
2022-12-18T00:25:24.973Z,19.20
2022-12-18T00:27:53.205Z,20.10
2022-12-18T00:30:21.717Z,18.70
2022-12-18T00:32:50.096Z,18.90
2022-12-18T00:35:18.384Z,20.60
2022-12-18T00:37:48.298Z,18.90
2022-12-18T00:40:16.832Z,17.70
2022-12-18T00:42:57.097Z,18.60
2022-12-18T00:45:30.568Z,19.20
2022-12-18T00:47:58.942Z,18.80
2022-12-18T00:50:27.744Z,19.70
2022-12-18T00:52:56.024Z,18.80
2022-12-18T00:55:24.271Z,20.10
2022-12-18T00:57:53.682Z,17.50
2022-12-18T01:00:22.291Z,18.90
2022-12-18T01:02:50.927Z,17.80
2022-12-18T01:05:19.416Z,17.00
2022-12-18T01:07:47.678Z,17.00
2022-12-18T01:10:16.332Z,16.80
2022-12-18T01:12:44.595Z,18.30
2022-12-18T01:15:14.374Z,18.50
2022-12-18T01:17:43.315Z,18.00
2022-12-18T01:20:13.845Z,18.20
2022-12-18T01:22:42.128Z,18.80
2022-12-18T01:25:10.511Z,19.10
2022-12-18T01:27:38.812Z,19.50
2022-12-18T01:30:08.023Z,18.50
2022-12-18T01:32:36.320Z,19.30
2022-12-18T01:35:05.028Z,18.60
2022-12-18T01:37:33.585Z,19.50
2022-12-18T01:40:02.075Z,19.20
2022-12-18T01:42:30.304Z,19.80
2022-12-18T01:44:58.755Z,18.90
2022-12-18T01:47:36.086Z,19.20
2022-12-18T01:50:41.179Z,19.50
2022-12-18T01:53:18.088Z,17.60
2022-12-18T01:55:49.562Z,18.90
2022-12-18T01:58:19.745Z,19.00
2022-12-18T02:00:48.274Z,20.30
2022-12-18T02:03:17.222Z,19.10
2022-12-18T02:05:58.577Z,18.40
2022-12-18T02:08:41.721Z,20.70
2022-12-18T02:11:40.892Z,19.40
2022-12-18T02:14:23.092Z,18.20
2022-12-18T02:17:05.057Z,19.70
2022-12-18T02:19:52.129Z,20.00
2022-12-18T02:22:38.738Z,20.30
2022-12-18T02:25:09.812Z,17.30
2022-12-18T02:27:40.585Z,18.10
2022-12-18T02:30:09.784Z,17.50
2022-12-18T02:32:43.993Z,18.80
2022-12-18T02:35:17.748Z,18.10
2022-12-18T02:37:48.183Z,19.40
2022-12-18T02:40:19.412Z,20.10
2022-12-18T02:42:47.647Z,19.60
2022-12-18T02:45:17.352Z,18.80
2022-12-18T02:47:50.685Z,19.40
2022-12-18T02:50:35.313Z,19.90
2022-12-18T02:53:16.052Z,18.80
2022-12-18T02:56:03.292Z,19.80
2022-12-18T02:59:08.141Z,16.80
2022-12-18T03:01:53.513Z,18.20
2022-12-18T03:04:31.085Z,19.10
2022-12-18T03:07:04.772Z,19.00
2022-12-18T03:09:37.872Z,18.20
2022-12-18T03:12:24.787Z,18.80
2022-12-18T03:15:00.195Z,15.40
2022-12-18T03:17:31.652Z,16.90
2022-12-18T03:20:06.452Z,15.90
2022-12-18T03:22:38.060Z,18.50
2022-12-18T03:25:10.880Z,19.80
2022-12-18T03:27:46.292Z,19.60
2022-12-18T03:30:17.089Z,13.40
2022-12-18T03:32:50.164Z,18.70
2022-12-18T03:35:24.164Z,18.00
2022-12-18T03:37:52.789Z,15.60
2022-12-18T03:40:37.124Z,17.80
2022-12-18T03:43:31.173Z,19.00
2022-12-18T03:46:06.815Z,16.50
2022-12-18T03:48:49.616Z,18.70
2022-12-18T03:51:35.196Z,19.30
2022-12-18T03:54:07.753Z,18.60
2022-12-18T03:56:52.589Z,19.10
2022-12-18T03:59:24.073Z,16.70
2022-12-18T04:01:56.086Z,20.30
2022-12-18T04:04:28.608Z,18.90
2022-12-18T04:06:59.387Z,16.50
2022-12-18T04:09:29.450Z,17.20
2022-12-18T04:11:57.574Z,20.80
2022-12-18T04:14:26.273Z,19.20
2022-12-18T04:16:55.945Z,19.40
2022-12-18T04:19:28.549Z,19.80
2022-12-18T04:21:56.721Z,20.40
2022-12-18T04:24:25.141Z,21.00
2022-12-18T04:27:03.456Z,21.20
2022-12-18T04:29:35.635Z,22.50
2022-12-18T04:32:03.812Z,20.00
2022-12-18T04:34:33.039Z,20.00
2022-12-18T04:37:02.015Z,20.20
2022-12-18T04:39:31.441Z,21.20
2022-12-18T04:42:01.909Z,22.10
2022-12-18T04:44:30.189Z,20.30
2022-12-18T04:46:58.599Z,21.00
2022-12-18T04:49:27.025Z,21.90
2022-12-18T04:51:55.800Z,22.30
2022-12-18T04:54:24.129Z,21.40
2022-12-18T04:56:52.369Z,20.80
2022-12-18T04:59:21.101Z,21.60
2022-12-18T05:01:49.296Z,19.90
2022-12-18T05:04:17.775Z,21.80
2022-12-18T05:06:46.304Z,20.90
2022-12-18T05:09:14.596Z,20.60
2022-12-18T05:11:42.777Z,18.90
2022-12-18T05:14:11.312Z,22.70
2022-12-18T05:16:39.425Z,22.00
2022-12-18T05:19:07.809Z,22.80
2022-12-18T05:21:35.941Z,21.70
2022-12-18T05:24:04.388Z,23.20
2022-12-18T05:26:32.661Z,22.00
2022-12-18T05:29:00.958Z,21.30
2022-12-18T05:31:29.185Z,23.30
2022-12-18T05:33:57.704Z,24.20
2022-12-18T05:36:25.976Z,23.90
2022-12-18T05:38:54.306Z,23.80
2022-12-18T05:41:22.477Z,24.60
2022-12-18T05:43:50.848Z,23.80
2022-12-18T05:46:19.260Z,21.00
2022-12-18T05:48:48.228Z,22.00
2022-12-18T05:51:19.141Z,22.80
2022-12-18T05:53:47.797Z,21.80
2022-12-18T05:56:18.688Z,21.90
2022-12-18T05:58:47.745Z,20.40
2022-12-18T06:01:21.579Z,23.00
2022-12-18T06:03:50.568Z,22.50
2022-12-18T06:06:24.778Z,23.00
2022-12-18T06:08:53.842Z,25.00
2022-12-18T06:11:25.357Z,22.80
2022-12-18T06:13:58.720Z,24.90
2022-12-18T06:16:29.416Z,22.50
2022-12-18T06:18:59.293Z,22.50
2022-12-18T06:21:29.121Z,23.70
2022-12-18T06:23:57.741Z,22.40
2022-12-18T06:26:28.363Z,23.30
2022-12-18T06:28:57.364Z,24.40
2022-12-18T06:31:26.995Z,24.90
2022-12-18T06:33:55.338Z,26.60
2022-12-18T06:36:23.554Z,23.90
2022-12-18T06:38:52.067Z,27.80
2022-12-18T06:41:22.275Z,27.20
2022-12-18T06:43:52.182Z,23.50
2022-12-18T06:46:22.782Z,23.30
2022-12-18T06:48:51.614Z,22.80
2022-12-18T06:51:24.116Z,26.30
2022-12-18T06:53:52.661Z,25.90
2022-12-18T06:56:20.917Z,25.60
2022-12-18T06:58:52.520Z,24.00
2022-12-18T07:01:20.894Z,23.60
2022-12-18T07:03:55.745Z,26.20
2022-12-18T07:06:26.366Z,24.70
2022-12-18T07:08:55.945Z,27.60
2022-12-18T07:11:24.271Z,26.00
2022-12-18T07:13:54.008Z,26.30
2022-12-18T07:16:25.687Z,22.80
2022-12-18T07:18:56.898Z,23.20
2022-12-18T07:21:26.270Z,24.20
2022-12-18T07:23:55.032Z,24.90
2022-12-18T07:26:23.929Z,19.20
2022-12-18T07:28:56.512Z,24.80
2022-12-18T07:31:26.430Z,23.20
2022-12-18T07:33:54.785Z,24.90
2022-12-18T07:36:22.907Z,25.40
2022-12-18T07:38:53.041Z,24.60
2022-12-18T07:41:21.985Z,24.00
2022-12-18T07:43:50.388Z,26.00
2022-12-18T07:46:18.927Z,26.50
2022-12-18T07:48:50.086Z,26.80
2022-12-18T07:51:19.804Z,27.70
2022-12-18T07:53:49.557Z,29.30
2022-12-18T07:56:30.512Z,27.00
2022-12-18T07:59:00.712Z,29.10
2022-12-18T08:01:29.281Z,29.30
2022-12-18T08:03:59.026Z,28.50
2022-12-18T08:06:27.224Z,30.80
2022-12-18T08:08:56.739Z,28.90
2022-12-18T08:11:26.903Z,32.00
2022-12-18T08:13:55.997Z,29.00
2022-12-18T08:16:25.194Z,31.80
2022-12-18T08:18:54.721Z,28.90
2022-12-18T08:21:26.173Z,26.80
2022-12-18T08:23:56.503Z,29.30
2022-12-18T08:26:26.947Z,31.10
2022-12-18T08:28:59.884Z,29.80
2022-12-18T08:33:57.595Z,30.10
2022-12-18T08:36:26.203Z,29.20
2022-12-18T08:38:55.264Z,28.60
2022-12-18T08:41:23.605Z,30.70
2022-12-18T08:44:10.601Z,29.50
2022-12-18T08:46:41.463Z,28.50
2022-12-18T08:49:11.299Z,27.40
2022-12-18T08:51:40.395Z,30.20
2022-12-18T08:54:08.855Z,30.20
2022-12-18T08:56:37.143Z,26.00
2022-12-18T08:59:05.540Z,28.60
2022-12-18T09:01:34.280Z,28.90
2022-12-18T09:04:04.061Z,33.80
2022-12-18T09:06:33.506Z,30.30
2022-12-18T09:09:02.125Z,31.20
2022-12-18T09:11:31.699Z,27.60
2022-12-18T09:14:02.039Z,26.90
2022-12-18T09:16:32.536Z,30.40
2022-12-18T09:19:01.296Z,24.80
2022-12-18T09:21:35.859Z,29.10
2022-12-18T09:24:08.581Z,29.90
2022-12-18T09:26:38.549Z,30.60
2022-12-18T09:29:08.466Z,31.20
2022-12-18T09:31:39.151Z,31.10
2022-12-18T09:34:07.825Z,28.60
2022-12-18T09:36:36.180Z,29.20
2022-12-18T09:39:08.294Z,30.30
2022-12-18T09:41:46.786Z,31.20
2022-12-18T09:44:22.575Z,33.00
2022-12-18T09:47:10.679Z,28.80
2022-12-18T09:49:43.830Z,30.50
2022-12-18T09:52:38.951Z,32.90
2022-12-18T09:55:37.385Z,30.50
2022-12-18T09:58:45.409Z,31.60
2022-12-18T10:01:17.708Z,26.80
2022-12-18T10:03:46.483Z,27.40
2022-12-18T10:06:43.687Z,28.90
2022-12-18T10:09:26.628Z,30.00
2022-12-18T10:12:09.695Z,29.20
2022-12-18T10:15:21.152Z,29.30
2022-12-18T10:18:35.869Z,27.30
2022-12-18T10:21:31.227Z,29.60
2022-12-18T10:24:14.271Z,29.50
2022-12-18T10:26:43.471Z,28.50
2022-12-18T10:29:17.122Z,28.20
2022-12-18T10:34:14.011Z,30.80
2022-12-18T10:36:43.339Z,30.30
2022-12-18T10:39:23.618Z,31.20
2022-12-18T10:41:52.879Z,30.20
2022-12-18T10:44:23.942Z,29.00
2022-12-18T10:46:59.138Z,31.40
2022-12-18T10:49:29.982Z,29.60
2022-12-18T10:52:19.618Z,29.30
2022-12-18T10:54:52.547Z,28.30
2022-12-18T10:57:27.097Z,30.20
2022-12-18T10:59:57.391Z,29.10
2022-12-18T11:02:37.042Z,30.10
2022-12-18T11:05:26.968Z,29.80
2022-12-18T11:07:57.345Z,34.00
2022-12-18T11:10:31.688Z,32.10
2022-12-18T11:13:14.362Z,30.80
2022-12-18T11:15:43.000Z,31.50
2022-12-18T11:18:28.726Z,30.80
2022-12-18T11:21:12.120Z,31.30
2022-12-18T11:23:48.024Z,33.70
2022-12-18T11:26:16.627Z,32.50
2022-12-18T11:28:46.423Z,33.30
2022-12-18T11:31:32.488Z,33.90
2022-12-18T11:34:30.846Z,32.60
2022-12-18T11:37:02.271Z,33.00
2022-12-18T11:39:40.758Z,33.00
2022-12-18T11:42:11.785Z,29.60
2022-12-18T11:44:59.359Z,32.60
2022-12-18T11:47:40.367Z,30.50
2022-12-18T11:50:19.711Z,31.10
2022-12-18T11:52:52.797Z,31.40
2022-12-18T11:55:55.622Z,31.60
2022-12-18T11:58:57.670Z,30.90
2022-12-18T12:01:44.486Z,32.40
2022-12-18T12:04:23.757Z,30.10
2022-12-18T12:07:07.273Z,30.80
2022-12-18T12:09:35.372Z,31.90
2022-12-18T12:12:48.695Z,32.20
2022-12-18T12:15:43.648Z,32.50
2022-12-18T12:18:36.756Z,31.10
2022-12-18T12:21:20.121Z,30.30
2022-12-18T12:24:30.044Z,30.70
2022-12-18T12:27:13.720Z,30.00
2022-12-18T12:30:19.834Z,30.80
2022-12-18T12:33:18.998Z,32.10
2022-12-18T12:36:23.712Z,31.60
2022-12-18T12:38:58.927Z,31.20
2022-12-18T12:41:50.579Z,29.20
2022-12-18T13:07:05.785Z,32.30
2022-12-18T13:12:43.052Z,31.80
2022-12-18T13:15:23.398Z,31.90
2022-12-18T13:18:12.003Z,32.30
2022-12-18T13:20:46.591Z,32.60
2022-12-18T13:23:25.276Z,32.10
2022-12-18T13:25:53.964Z,30.60
2022-12-18T13:28:44.972Z,30.50
2022-12-18T13:31:32.933Z,32.60
2022-12-18T13:34:27.690Z,32.00
2022-12-18T13:37:18.150Z,33.40
2022-12-18T13:39:46.643Z,34.10
2022-12-18T13:42:36.877Z,32.10
2022-12-18T13:45:51.002Z,33.90
2022-12-18T13:48:24.548Z,32.50
2022-12-18T13:53:43.556Z,33.00
2022-12-18T13:56:25.023Z,32.70
2022-12-18T13:59:12.986Z,34.50
2022-12-18T14:01:47.428Z,33.60
2022-12-18T14:04:32.451Z,33.10
2022-12-18T14:07:20.025Z,32.70
2022-12-18T14:10:06.442Z,32.30
2022-12-18T14:13:02.142Z,33.10
2022-12-18T14:15:42.764Z,34.00
2022-12-18T14:18:23.115Z,34.70
2022-12-18T14:21:00.033Z,33.10
2022-12-18T14:23:39.622Z,34.10
2022-12-18T14:26:30.391Z,32.60
2022-12-18T14:29:02.409Z,34.70
2022-12-18T14:31:32.690Z,35.10
2022-12-18T14:34:01.080Z,34.00
2022-12-18T14:36:30.397Z,34.60
2022-12-18T14:38:59.803Z,35.30
2022-12-18T14:41:29.836Z,36.90
2022-12-18T14:44:08.094Z,37.70
2022-12-18T14:46:38.798Z,38.20
2022-12-18T14:49:20.099Z,41.40
2022-12-18T14:51:57.581Z,37.90
2022-12-18T14:54:27.327Z,39.60
2022-12-18T14:57:23.615Z,35.20
2022-12-18T14:59:52.403Z,40.80
2022-12-18T15:02:29.117Z,38.70
2022-12-18T15:05:14.372Z,40.50
2022-12-18T15:07:46.883Z,39.30
2022-12-18T15:10:19.629Z,33.40
2022-12-18T15:13:00.823Z,35.50
2022-12-18T15:15:35.387Z,33.90
2022-12-18T15:18:09.850Z,34.60
2022-12-18T15:20:44.237Z,34.80
2022-12-18T15:23:19.020Z,29.80
2022-12-18T15:25:49.068Z,31.10
2022-12-18T15:28:27.927Z,27.80
2022-12-18T15:31:07.763Z,30.00
2022-12-18T15:33:42.227Z,29.70
2022-12-18T15:36:14.184Z,24.10
2022-12-18T15:38:42.684Z,25.80
2022-12-18T15:41:16.849Z,26.90
2022-12-18T15:43:48.772Z,30.90
2022-12-18T15:46:19.651Z,33.00
2022-12-18T15:48:49.816Z,21.90
2022-12-18T15:51:27.887Z,28.20
2022-12-18T15:53:59.751Z,26.20
2022-12-18T15:56:46.465Z,27.20
2022-12-18T15:59:17.961Z,24.80
2022-12-18T16:01:48.953Z,26.60
2022-12-18T16:04:21.670Z,26.20
2022-12-18T16:07:13.689Z,26.40
2022-12-18T16:09:39.859Z,25.70
2022-12-18T16:12:22.102Z,26.80
2022-12-18T16:14:50.459Z,26.40
2022-12-18T16:17:19.066Z,26.10
2022-12-18T16:19:47.439Z,22.60
2022-12-18T16:22:28.185Z,26.90
2022-12-18T16:24:57.797Z,24.00
2022-12-18T16:27:26.574Z,24.90
2022-12-18T16:29:54.764Z,26.20
2022-12-18T16:32:23.711Z,31.00
2022-12-18T16:34:52.931Z,29.60
2022-12-18T16:37:21.169Z,27.80
2022-12-18T16:39:49.370Z,28.50
2022-12-18T16:42:20.677Z,27.60
2022-12-18T16:44:50.591Z,28.10
2022-12-18T16:47:19.955Z,27.30
2022-12-18T16:49:51.886Z,26.90
2022-12-18T16:52:20.606Z,28.60
2022-12-18T16:54:49.199Z,29.50
2022-12-18T16:57:20.099Z,28.00
2022-12-18T16:59:50.072Z,26.00
2022-12-18T17:02:23.763Z,26.70
2022-12-18T17:04:55.749Z,26.90
2022-12-18T17:07:25.035Z,25.00
2022-12-18T17:09:54.469Z,27.20
2022-12-18T17:12:23.607Z,24.60
2022-12-18T17:14:51.892Z,25.50
2022-12-18T17:17:23.051Z,23.50
2022-12-18T17:19:52.892Z,23.40
2022-12-18T17:22:23.463Z,27.10
2022-12-18T17:24:51.946Z,24.50
2022-12-18T17:27:20.227Z,26.80
2022-12-18T17:29:49.145Z,27.70
2022-12-18T17:32:18.102Z,26.30
2022-12-18T17:34:46.790Z,26.10
2022-12-18T17:37:15.660Z,26.70
2022-12-18T17:39:44.048Z,23.70
2022-12-18T17:42:15.458Z,23.40
2022-12-18T17:44:45.040Z,25.30
2022-12-18T17:47:14.644Z,25.80
2022-12-18T17:49:43.231Z,25.90
2022-12-18T17:52:11.815Z,27.00
2022-12-18T17:54:42.277Z,20.90
2022-12-18T17:57:11.221Z,24.60
2022-12-18T17:59:39.488Z,23.90
2022-12-18T18:02:11.720Z,24.60
2022-12-18T18:04:40.416Z,22.60
2022-12-18T18:07:08.619Z,22.50
2022-12-18T18:09:36.903Z,22.30
2022-12-18T18:12:23.556Z,26.20
2022-12-18T18:14:51.792Z,24.50
2022-12-18T18:17:20.149Z,23.80
2022-12-18T18:19:49.640Z,24.00
2022-12-18T18:22:19.130Z,27.00
2022-12-18T18:24:48.164Z,25.80
2022-12-18T18:27:16.501Z,25.40
2022-12-18T18:29:45.051Z,25.40
2022-12-18T18:32:13.481Z,27.20
2022-12-18T18:34:41.892Z,29.20
2022-12-18T18:37:11.384Z,25.50
2022-12-18T18:39:39.766Z,25.30
2022-12-18T18:42:08.376Z,27.10
2022-12-18T18:44:37.441Z,24.30
2022-12-18T18:47:06.308Z,29.50
2022-12-18T18:49:37.796Z,24.60
2022-12-18T18:52:07.321Z,27.60
2022-12-18T18:54:35.595Z,26.90
2022-12-18T18:57:20.456Z,26.80
2022-12-18T18:59:49.661Z,24.80
2022-12-18T19:02:18.171Z,29.90
2022-12-18T19:04:47.144Z,29.00
2022-12-18T19:07:29.784Z,25.90
2022-12-18T19:10:07.246Z,23.30
2022-12-18T19:12:54.158Z,22.20
2022-12-18T19:15:23.355Z,24.70
2022-12-18T19:17:51.798Z,24.70
2022-12-18T19:20:22.812Z,26.10
2022-12-18T19:22:55.512Z,27.30
2022-12-18T19:25:38.225Z,26.50
2022-12-18T19:28:21.293Z,26.90
2022-12-18T19:30:57.881Z,27.40
2022-12-18T19:33:45.636Z,26.60
2022-12-18T19:36:28.162Z,25.30
2022-12-18T19:38:59.766Z,27.70
2022-12-18T19:41:37.694Z,25.50
2022-12-18T19:44:08.304Z,24.40
2022-12-18T19:46:37.153Z,21.20
2022-12-18T19:49:11.537Z,20.90
2022-12-18T19:51:45.061Z,25.20
2022-12-18T19:54:17.076Z,25.00
2022-12-18T19:56:46.000Z,21.80
2022-12-18T19:59:14.339Z,24.60
2022-12-18T20:01:42.714Z,24.60
2022-12-18T20:04:11.101Z,24.50
2022-12-18T20:06:51.450Z,25.00
2022-12-18T20:09:20.774Z,23.60
2022-12-18T20:11:50.098Z,25.40
2022-12-18T20:14:22.726Z,22.80
2022-12-18T20:16:53.040Z,23.40
2022-12-18T20:19:22.468Z,25.00
2022-12-18T20:21:50.936Z,25.10
2022-12-18T20:24:19.212Z,25.90
2022-12-18T20:26:47.491Z,28.10
2022-12-18T20:29:15.738Z,27.30
2022-12-18T20:31:43.997Z,26.70
2022-12-18T20:34:12.254Z,29.80
2022-12-18T20:36:41.156Z,26.50
2022-12-18T20:39:13.316Z,28.40
2022-12-18T20:41:41.671Z,30.20
2022-12-18T20:44:23.271Z,25.50
2022-12-18T20:46:56.597Z,25.70
2022-12-18T20:49:26.715Z,25.70
2022-12-18T20:51:56.951Z,20.60
2022-12-18T20:54:27.596Z,25.60
2022-12-18T20:56:56.164Z,25.30
2022-12-18T20:59:25.793Z,23.10
2022-12-18T21:01:54.715Z,24.10
2022-12-18T21:04:23.593Z,24.80
2022-12-18T21:07:00.465Z,22.10
2022-12-18T21:09:38.245Z,21.60
2022-12-18T21:12:33.637Z,24.70
2022-12-18T21:15:10.151Z,25.70
2022-12-18T21:17:39.441Z,25.80
2022-12-18T21:20:17.882Z,24.50
2022-12-18T21:22:49.415Z,24.40
2022-12-18T21:25:18.112Z,24.30
2022-12-18T21:27:46.319Z,25.70
2022-12-18T21:30:15.278Z,22.40
2022-12-18T21:32:43.968Z,25.80
2022-12-18T21:35:12.369Z,25.60
2022-12-18T21:37:41.595Z,24.20
2022-12-18T21:40:10.262Z,26.70
2022-12-18T21:42:56.904Z,24.50
2022-12-18T21:45:25.399Z,24.40
2022-12-18T21:47:53.576Z,24.60
2022-12-18T21:50:21.727Z,24.10
2022-12-18T21:52:49.838Z,23.60
2022-12-18T21:55:18.327Z,22.80
2022-12-18T21:57:46.595Z,23.80
2022-12-18T22:00:17.427Z,22.80
2022-12-18T22:02:49.614Z,23.50
2022-12-18T22:05:36.769Z,21.60
2022-12-18T22:08:06.841Z,22.30
2022-12-18T22:10:35.839Z,23.70
2022-12-18T22:13:05.396Z,24.10
2022-12-18T22:15:33.707Z,22.70
2022-12-18T22:18:02.139Z,25.60
2022-12-18T22:20:30.781Z,24.20
2022-12-18T22:22:59.508Z,17.70
2022-12-18T22:25:32.238Z,22.80
2022-12-18T22:28:21.334Z,27.60
2022-12-18T22:30:49.470Z,26.70
2022-12-18T22:33:21.222Z,26.00
2022-12-18T22:35:49.434Z,27.90
2022-12-18T22:38:17.528Z,25.60
2022-12-18T22:40:45.614Z,26.40
2022-12-18T22:43:13.788Z,27.60
2022-12-18T22:45:42.520Z,27.70
2022-12-18T22:48:11.019Z,27.20
2022-12-18T22:50:39.420Z,26.90
2022-12-18T22:53:08.056Z,24.20
2022-12-18T22:55:36.305Z,23.50
2022-12-18T22:58:04.571Z,23.70
2022-12-18T23:00:32.993Z,24.60
2022-12-18T23:03:01.487Z,22.80
2022-12-18T23:05:31.511Z,27.20
2022-12-18T23:07:59.673Z,21.60
2022-12-18T23:10:29.138Z,21.20
2022-12-18T23:12:57.404Z,23.90
2022-12-18T23:15:28.309Z,27.20
2022-12-18T23:17:58.541Z,23.90
2022-12-18T23:20:28.202Z,21.90
2022-12-18T23:22:56.606Z,22.80
2022-12-18T23:25:25.144Z,19.40
2022-12-18T23:27:53.809Z,23.40
2022-12-18T23:30:22.257Z,20.00
2022-12-18T23:32:50.632Z,24.40
2022-12-18T23:35:19.251Z,25.80
2022-12-18T23:37:58.917Z,22.40
2022-12-18T23:40:29.537Z,23.60
2022-12-18T23:42:59.271Z,21.70
2022-12-18T23:45:27.516Z,22.60
2022-12-18T23:47:55.924Z,23.30
2022-12-18T23:50:29.714Z,24.10
2022-12-18T23:53:04.832Z,22.40
2022-12-18T23:55:39.736Z,23.60
2022-12-18T23:58:18.889Z,19.60
